TimeCDT,TemperatureF,Dew PointF,Humidity,Sea Level PressureIn,VisibilityMPH,Wind Direction,Wind SpeedMPH,Gust SpeedMPH,PrecipitationIn,Events,Conditions,WindDirDegrees,DateUTC
12:15 AM,82.4,62.6,51,29.81,10.0,NE,6.9,-,N/A,,Clear,40,2013-09-25 05:15:00
12:35 AM,80.6,62.6,54,29.82,10.0,ENE,6.9,-,N/A,,Clear,60,2013-09-25 05:35:00
12:55 AM,80.6,62.6,54,29.82,10.0,ENE,6.9,-,N/A,,Clear,60,2013-09-25 05:55:00
1:15 AM,80.6,62.6,54,29.82,10.0,ENE,4.6,-,N/A,,Clear,60,2013-09-25 06:15:00
1:35 AM,80.6,64.4,58,29.81,10.0,ESE,4.6,-,N/A,,Clear,110,2013-09-25 06:35:00
1:55 AM,80.6,64.4,58,29.81,10.0,ESE,4.6,-,N/A,,Clear,110,2013-09-25 06:55:00
2:35 AM,80.6,68.0,65,29.81,10.0,SSE,3.5,-,N/A,,Clear,150,2013-09-25 07:35:00
2:55 AM,80.6,69.8,70,29.81,10.0,Calm,Calm,-,N/A,,Clear,0,2013-09-25 07:55:00
3:15 AM,78.8,69.8,74,29.81,10.0,South,3.5,-,N/A,,Clear,170,2013-09-25 08:15:00
3:35 AM,78.8,69.8,74,29.81,10.0,Calm,Calm,-,N/A,,Clear,0,2013-09-25 08:35:00
3:55 AM,78.8,69.8,74,29.80,10.0,Calm,Calm,-,N/A,,Clear,0,2013-09-25 08:55:00
4:35 AM,77.0,69.8,78,29.80,10.0,SSW,3.5,-,N/A,,Clear,210,2013-09-25 09:35:00
4:55 AM,77.0,68.0,74,29.80,10.0,Calm,Calm,-,N/A,,Clear,0,2013-09-25 09:55:00
5:15 AM,77.0,71.6,83,29.81,10.0,SSW,3.5,-,N/A,,Clear,210,2013-09-25 10:15:00
5:35 AM,77.0,71.6,83,29.80,10.0,SSW,3.5,-,N/A,,Clear,200,2013-09-25 10:35:00
5:55 AM,77.0,71.6,83,29.81,10.0,SW,6.9,-,N/A,,Clear,220,2013-09-25 10:55:00
6:15 AM,77.0,71.6,83,29.81,10.0,SW,4.6,-,N/A,,Clear,230,2013-09-25 11:15:00
6:35 AM,77.0,68.0,74,29.82,10.0,SW,4.6,-,N/A,,Clear,230,2013-09-25 11:35:00
6:55 AM,77.0,68.0,74,29.82,10.0,WSW,5.8,-,N/A,,Clear,240,2013-09-25 11:55:00
7:15 AM,77.0,68.0,74,29.82,10.0,WSW,6.9,-,N/A,,Clear,250,2013-09-25 12:15:00
7:35 AM,77.0,68.0,74,29.82,10.0,WSW,6.9,-,N/A,,Clear,250,2013-09-25 12:35:00
7:55 AM,78.8,68.0,69,29.82,10.0,WSW,5.8,-,N/A,,Clear,240,2013-09-25 12:55:00
8:15 AM,78.8,66.2,65,29.82,10.0,WSW,5.8,-,N/A,,Clear,240,2013-09-25 13:15:00
8:35 AM,80.6,68.0,65,29.83,10.0,WSW,5.8,-,N/A,,Clear,250,2013-09-25 13:35:00
8:55 AM,82.4,68.0,62,29.83,10.0,WSW,5.8,-,N/A,,Clear,250,2013-09-25 13:55:00
9:15 AM,82.4,69.8,66,29.83,10.0,West,6.9,-,N/A,,Clear,260,2013-09-25 14:15:00
9:35 AM,84.2,69.8,62,29.84,10.0,West,3.5,-,N/A,,Clear,270,2013-09-25 14:35:00
9:55 AM,84.2,69.8,62,29.84,10.0,West,6.9,-,N/A,,Clear,260,2013-09-25 14:55:00
10:15 AM,86.0,68.0,55,29.85,9.0,West,3.5,-,N/A,,Clear,260,2013-09-25 15:15:00
10:35 AM,87.8,68.0,52,29.85,10.0,West,4.6,-,N/A,,Clear,270,2013-09-25 15:35:00
10:55 AM,89.6,68.0,49,29.85,10.0,West,4.6,-,N/A,,Clear,260,2013-09-25 15:55:00
11:15 AM,89.6,66.2,46,29.85,10.0,West,4.6,-,N/A,,Clear,270,2013-09-25 16:15:00
11:35 AM,91.4,66.2,43,29.85,9.0,West,5.8,-,N/A,,Clear,260,2013-09-25 16:35:00
11:55 AM,91.4,66.2,43,29.85,10.0,WNW,3.5,-,N/A,,Clear,290,2013-09-25 16:55:00
12:15 PM,91.4,66.2,43,29.84,10.0,WNW,4.6,-,N/A,,Clear,290,2013-09-25 17:15:00
12:35 PM,93.2,64.4,38,29.84,8.0,WNW,3.5,-,N/A,,Clear,290,2013-09-25 17:35:00
1:15 PM,96.8,55.4,25,29.83,10.0,Calm,Calm,-,N/A,,Clear,0,2013-09-25 18:15:00
1:35 PM,96.8,55.4,25,29.82,10.0,WNW,5.8,-,N/A,,Clear,300,2013-09-25 18:35:00
1:55 PM,95.0,55.4,26,29.81,10.0,WNW,5.8,-,N/A,,Clear,290,2013-09-25 18:55:00
2:15 PM,96.8,55.4,25,29.80,10.0,Calm,Calm,-,N/A,,Clear,0,2013-09-25 19:15:00
2:35 PM,96.8,55.4,25,29.79,9.0,NNE,6.9,-,N/A,,Clear,20,2013-09-25 19:35:00
2:55 PM,96.8,53.6,23,29.78,8.0,Calm,Calm,-,N/A,,Clear,0,2013-09-25 19:55:00
3:15 PM,98.6,55.4,24,29.78,7.0,Calm,Calm,-,N/A,,Clear,0,2013-09-25 20:15:00
3:55 PM,95.0,53.6,25,29.76,8.0,West,4.6,-,N/A,,Clear,280,2013-09-25 20:55:00
4:15 PM,95.0,53.6,25,29.76,9.0,NW,6.9,-,N/A,,Clear,310,2013-09-25 21:15:00
4:35 PM,95.0,53.6,25,29.75,9.0,West,3.5,-,N/A,,Clear,270,2013-09-25 21:35:00
4:55 PM,96.8,53.6,23,29.75,10.0,NNW,5.8,-,N/A,,Clear,330,2013-09-25 21:55:00
5:15 PM,95.0,53.6,25,29.75,10.0,West,4.6,-,N/A,,Clear,260,2013-09-25 22:15:00
5:35 PM,95.0,53.6,25,29.75,8.0,Calm,Calm,-,N/A,,Clear,0,2013-09-25 22:35:00
5:55 PM,95.0,53.6,25,29.75,10.0,Calm,Calm,-,N/A,,Clear,0,2013-09-25 22:55:00
6:15 PM,93.2,53.6,26,29.75,5.0,Calm,Calm,-,N/A,,Clear,0,2013-09-25 23:15:00
6:35 PM,93.2,53.6,26,29.75,7.0,Calm,Calm,-,N/A,,Clear,0,2013-09-25 23:35:00
6:55 PM,91.4,57.2,31,29.76,10.0,SE,5.8,-,N/A,,Clear,130,2013-09-25 23:55:00
7:15 PM,87.8,66.2,49,29.76,10.0,SSE,11.5,18.4,N/A,,Clear,150,2013-09-26 00:15:00
7:35 PM,86.0,68.0,55,29.76,10.0,SSE,15.0,-,N/A,,Clear,150,2013-09-26 00:35:00
7:55 PM,84.2,66.2,55,29.77,10.0,South,5.8,-,N/A,,Clear,170,2013-09-26 00:55:00
8:15 PM,84.2,64.4,51,29.77,10.0,SSE,10.4,-,N/A,,Clear,150,2013-09-26 01:15:00
8:35 PM,84.2,64.4,51,29.78,10.0,SSE,8.1,-,N/A,,Clear,160,2013-09-26 01:35:00
8:55 PM,82.4,62.6,51,29.79,10.0,South,8.1,-,N/A,,Clear,170,2013-09-26 01:55:00
9:15 PM,82.4,62.6,51,29.79,10.0,SSW,4.6,-,N/A,,Clear,200,2013-09-26 02:15:00
9:35 PM,82.4,62.6,51,29.80,10.0,SW,4.6,-,N/A,,Clear,220,2013-09-26 02:35:00
9:55 PM,82.4,64.4,54,29.80,10.0,SSW,8.1,-,N/A,,Clear,210,2013-09-26 02:55:00
10:15 PM,80.6,64.4,58,29.80,10.0,SSW,10.4,-,N/A,,Clear,210,2013-09-26 03:15:00
10:35 PM,80.6,64.4,58,29.80,10.0,SSW,9.2,-,N/A,,Clear,210,2013-09-26 03:35:00
10:55 PM,80.6,66.2,61,29.80,10.0,SSW,6.9,-,N/A,,Clear,200,2013-09-26 03:55:00
11:15 PM,80.6,66.2,61,29.80,10.0,SSW,6.9,-,N/A,,Clear,210,2013-09-26 04:15:00
11:35 PM,80.6,66.2,61,29.80,10.0,SSW,6.9,-,N/A,,Clear,210,2013-09-26 04:35:00
11:55 PM,78.8,66.2,65,29.80,10.0,SSW,8.1,-,N/A,,Clear,200,2013-09-26 04:55:00